Time;durP1;ratioP1;P1;durP2;ratioP2;P2;SDS_P1;SDS_P2;PMS_P1;PMS_P2;Temp;Humidity;BMP_temperature;BMP_pressure;BME280_temperature;BME280_humidity;BME280_pressure;Samples;Min_cycle;Max_cycle;Signal;HPM_P1;HPM_P2
2022/04/27 00:01:08;;;;;;;9.50;5.65;;;13.90;99.90;;;;;;4990021;28;20674;-72
2022/04/27 00:03:34;;;;;;;11.02;6.30;;;13.90;99.90;;;;;;4989973;28;20061;-70
2022/04/27 00:06:00;;;;;;;9.57;6.05;;;13.80;99.90;;;;;;4990018;28;20421;-70
2022/04/27 00:08:25;;;;;;;10.63;6.05;;;13.80;99.90;;;;;;4990361;28;20102;-72
2022/04/27 00:10:51;;;;;;;10.15;5.68;;;13.90;99.90;;;;;;4989873;28;20158;-70
2022/04/27 00:13:17;;;;;;;9.05;5.72;;;13.90;99.90;;;;;;4990019;28;20109;-72
2022/04/27 00:15:43;;;;;;;10.25;5.70;;;13.90;99.90;;;;;;4990439;28;20161;-72
2022/04/27 00:18:09;;;;;;;10.27;5.97;;;14.00;99.90;;;;;;4993274;28;20457;-72
2022/04/27 00:20:35;;;;;;;9.98;6.03;;;14.00;99.90;;;;;;4993595;28;20034;-71
2022/04/27 00:23:01;;;;;;;13.18;6.90;;;14.00;99.90;;;;;;4992545;28;20094;-70
2022/04/27 00:25:27;;;;;;;10.65;6.25;;;13.90;99.90;;;;;;4993169;28;20026;-71
2022/04/27 00:27:53;;;;;;;9.63;6.35;;;13.90;99.90;;;;;;4994082;28;20100;-70
2022/04/27 00:30:19;;;;;;;9.70;6.05;;;14.00;99.90;;;;;;4992595;28;20027;-71
2022/04/27 00:32:44;;;;;;;9.38;6.28;;;14.00;99.90;;;;;;4994146;28;20038;-71
2022/04/27 00:35:10;;;;;;;10.18;5.88;;;14.00;99.90;;;;;;5008022;28;20370;-72
2022/04/27 00:37:36;;;;;;;9.65;5.97;;;14.00;99.90;;;;;;4994103;28;20101;-69
2022/04/27 00:40:03;;;;;;;9.20;5.78;;;14.10;99.90;;;;;;4992804;28;20057;-69
2022/04/27 00:42:29;;;;;;;10.90;5.82;;;14.00;99.90;;;;;;4993914;28;20029;-70
2022/04/27 00:44:54;;;;;;;11.80;6.25;;;14.10;99.90;;;;;;4993621;28;20050;-72
2022/04/27 00:47:20;;;;;;;7.97;4.90;;;14.10;99.90;;;;;;4991903;28;20096;-70
2022/04/27 00:49:51;;;;;;;11.15;6.75;;;14.10;99.90;;;;;;4992294;28;20077;-71
2022/04/27 00:52:19;;;;;;;12.57;6.35;;;14.10;99.90;;;;;;4991485;28;20046;-72
2022/04/27 00:54:52;;;;;;;13.13;6.70;;;14.10;99.90;;;;;;4992753;28;20026;-70
2022/04/27 00:57:19;;;;;;;9.10;5.63;;;14.00;99.90;;;;;;4992849;28;20026;-70
2022/04/27 00:59:47;;;;;;;10.38;5.35;;;14.10;99.90;;;;;;4992252;28;20065;-71
2022/04/27 01:02:13;;;;;;;11.90;6.15;;;14.20;99.90;;;;;;5007832;28;20026;-71
2022/04/27 01:04:39;;;;;;;10.73;6.25;;;14.20;99.90;;;;;;4992632;28;20101;-71
2022/04/27 01:07:07;;;;;;;15.48;7.78;;;14.30;99.90;;;;;;4991778;28;20046;-67
2022/04/27 01:09:33;;;;;;;11.73;7.38;;;14.30;99.90;;;;;;4990785;28;20548;-66
2022/04/27 01:12:01;;;;;;;24.95;15.52;;;14.30;99.90;;;;;;4990480;28;20074;-66
2022/04/27 01:14:28;;;;;;;18.02;10.77;;;14.20;99.90;;;;;;4989791;28;20116;-66
2022/04/27 01:16:55;;;;;;;19.35;11.57;;;14.20;99.90;;;;;;4989792;28;20497;-66
2022/04/27 01:19:23;;;;;;;18.70;12.27;;;14.20;99.90;;;;;;5007836;28;20054;-66
2022/04/27 01:21:50;;;;;;;19.55;6.57;;;14.20;99.90;;;;;;4991522;28;20492;-66
2022/04/27 01:24:20;;;;;;;14.90;6.38;;;14.30;99.90;;;;;;5008555;28;20041;-67
2022/04/27 01:26:48;;;;;;;8.95;5.43;;;14.20;99.90;;;;;;4993280;28;20038;-66
2022/04/27 01:29:24;;;;;;;9.50;5.18;;;14.30;99.90;;;;;;4993070;28;20109;-66
2022/04/27 01:31:51;;;;;;;7.95;5.50;;;14.20;99.90;;;;;;4993528;28;20037;-66
2022/04/27 01:34:18;;;;;;;9.52;5.45;;;14.20;99.90;;;;;;4993469;28;20030;-65
2022/04/27 01:36:44;;;;;;;9.93;5.05;;;14.30;99.90;;;;;;4993013;28;20442;-68
2022/04/27 01:39:10;;;;;;;14.38;6.68;;;14.20;99.90;;;;;;5008255;28;20121;-66
2022/04/27 01:41:37;;;;;;;9.57;5.97;;;14.30;99.90;;;;;;4991593;28;20041;-67
2022/04/27 01:44:04;;;;;;;13.90;6.95;;;14.20;99.90;;;;;;4992053;28;20029;-68
2022/04/27 01:46:31;;;;;;;9.43;5.45;;;14.20;99.90;;;;;;4992859;28;20053;-67
2022/04/27 01:48:57;;;;;;;14.75;6.78;;;14.10;99.90;;;;;;4991902;28;20042;-68
2022/04/27 01:54:15;;;;;;;10.93;5.95;;;14.10;99.90;;;;;;4991645;28;20037;-72
2022/04/27 01:54:15;;;;;;;10.13;6.05;;;14.00;99.90;;;;;;4991674;28;20424;-66
2022/04/27 01:56:47;;;;;;;9.02;5.43;;;14.00;99.90;;;;;;5008242;28;20031;-70
2022/04/27 01:59:14;;;;;;;8.88;5.60;;;14.00;99.90;;;;;;5008009;28;20177;-66
2022/04/27 02:01:41;;;;;;;9.55;6.18;;;14.00;99.90;;;;;;5008211;28;20580;-66
2022/04/27 02:04:08;;;;;;;11.95;6.10;;;13.90;99.90;;;;;;4991979;28;20117;-70
2022/04/27 02:06:37;;;;;;;12.90;6.95;;;13.90;99.90;;;;;;4992963;28;20033;-66
2022/04/27 02:09:09;;;;;;;11.65;6.97;;;13.90;99.90;;;;;;4991410;28;20503;-66
2022/04/27 02:11:44;;;;;;;13.25;7.07;;;13.90;99.90;;;;;;5007787;28;20481;-70
2022/04/27 02:14:10;;;;;;;11.57;7.30;;;13.90;99.90;;;;;;5007905;28;20057;-71
2022/04/27 02:16:38;;;;;;;12.43;7.70;;;13.80;99.90;;;;;;4991343;28;20053;-66
2022/04/27 02:19:10;;;;;;;12.73;7.00;;;13.80;99.90;;;;;;5008041;28;20033;-66
2022/04/27 02:21:36;;;;;;;14.40;7.80;;;13.80;99.90;;;;;;5007772;28;20038;-68
2022/04/27 02:24:02;;;;;;;12.60;7.30;;;13.80;99.90;;;;;;5008002;28;20029;-67
2022/04/27 02:26:28;;;;;;;12.00;7.43;;;13.80;99.90;;;;;;4992689;28;20033;-71
2022/04/27 02:28:56;;;;;;;14.45;7.63;;;13.90;99.90;;;;;;4991396;28;20018;-66
2022/04/27 02:31:22;;;;;;;12.18;7.38;;;13.90;99.90;;;;;;4992343;28;20039;-67
2022/04/27 02:33:48;;;;;;;10.77;6.72;;;13.90;99.90;;;;;;4992340;28;20022;-66
2022/04/27 02:36:13;;;;;;;10.50;6.80;;;14.00;99.90;;;;;;5007166;28;20030;-66
2022/04/27 02:38:40;;;;;;;12.00;7.18;;;14.00;99.90;;;;;;5007396;28;20022;-66
2022/04/27 02:41:10;;;;;;;10.02;6.45;;;13.90;99.90;;;;;;4990624;28;20077;-71
2022/04/27 02:43:37;;;;;;;14.40;7.60;;;14.00;99.90;;;;;;5007420;28;20121;-71
2022/04/27 02:46:04;;;;;;;9.95;6.53;;;13.90;99.90;;;;;;4990893;28;20047;-69
2022/04/27 02:48:30;;;;;;;17.48;8.18;;;13.90;99.90;;;;;;5007469;28;20100;-67
2022/04/27 02:53:41;;;;;;;12.77;7.72;;;14.00;99.90;;;;;;5007414;28;20045;-70
2022/04/27 02:56:07;;;;;;;11.70;7.22;;;14.00;99.90;;;;;;4990956;28;20109;-71
2022/04/27 02:58:33;;;;;;;12.23;6.75;;;14.10;99.90;;;;;;4992226;28;20157;-67
2022/04/27 03:00:59;;;;;;;14.00;7.35;;;14.00;99.90;;;;;;4992179;28;20350;-71
2022/04/27 03:03:25;;;;;;;14.35;7.40;;;14.00;99.90;;;;;;4991185;28;20034;-67
2022/04/27 03:05:52;;;;;;;13.57;7.13;;;13.90;99.90;;;;;;4990917;28;20023;-69
2022/04/27 03:08:18;;;;;;;11.15;6.72;;;14.00;99.90;;;;;;4990787;28;20045;-71
2022/04/27 03:10:48;;;;;;;11.43;7.50;;;14.00;99.90;;;;;;5006849;28;20027;-67
2022/04/27 03:13:16;;;;;;;14.70;6.32;;;14.00;99.90;;;;;;5007215;28;20041;-70
2022/04/27 03:15:43;;;;;;;12.38;7.95;;;14.10;99.90;;;;;;5006138;28;20045;-71
2022/04/27 03:18:19;;;;;;;14.45;8.90;;;14.00;99.90;;;;;;5007025;28;20370;-69
2022/04/27 03:20:50;;;;;;;14.98;8.65;;;13.80;99.90;;;;;;4990602;28;20084;-66
2022/04/27 03:23:17;;;;;;;12.82;7.97;;;13.80;99.90;;;;;;4990531;28;20034;-67
2022/04/27 03:25:48;;;;;;;12.55;7.80;;;13.80;99.90;;;;;;4990830;28;20023;-70
2022/04/27 03:28:15;;;;;;;13.25;7.90;;;13.70;99.90;;;;;;5007108;28;20037;-66
2022/04/27 03:30:43;;;;;;;11.38;7.68;;;13.70;99.90;;;;;;4991898;28;20045;-71
2022/04/27 03:33:22;;;;;;;14.00;8.48;;;13.60;99.90;;;;;;5007048;28;20122;-72
2022/04/27 03:35:50;;;;;;;13.57;8.35;;;13.60;99.90;;;;;;4990537;28;20034;-67
2022/04/27 03:38:18;;;;;;;13.43;8.38;;;13.70;99.90;;;;;;4991607;28;20161;-70
2022/04/27 03:40:47;;;;;;;16.83;9.48;;;13.50;99.90;;;;;;5006990;28;20366;-70
2022/04/27 03:43:15;;;;;;;14.35;8.93;;;13.40;99.90;;;;;;5006906;28;20052;-70
2022/04/27 03:45:41;;;;;;;14.02;8.25;;;13.40;99.90;;;;;;5006456;28;20054;-70
2022/04/27 03:48:08;;;;;;;14.50;8.48;;;13.40;99.90;;;;;;5006717;28;20065;-71
2022/04/27 03:50:35;;;;;;;13.20;7.30;;;13.40;99.90;;;;;;4990736;28;20385;-70
2022/04/27 03:53:01;;;;;;;15.25;9.25;;;13.40;99.90;;;;;;4994085;28;20030;-71
2022/04/27 03:55:33;;;;;;;13.23;8.25;;;13.40;99.90;;;;;;4994473;28;20548;-69
2022/04/27 03:58:00;;;;;;;13.35;8.40;;;13.40;99.90;;;;;;4995464;28;20042;-70
2022/04/27 04:00:26;;;;;;;13.60;8.75;;;13.40;99.90;;;;;;4993837;28;20081;-67
2022/04/27 04:03:03;;;;;;;20.85;12.30;;;13.40;99.90;;;;;;5010188;28;20031;-71
2022/04/27 04:05:30;;;;;;;15.43;10.55;;;13.40;99.90;;;;;;4993913;28;20034;-69
2022/04/27 04:07:57;;;;;;;19.58;10.30;;;13.40;99.90;;;;;;4993691;28;20433;-70
2022/04/27 04:10:24;;;;;;;15.30;9.10;;;13.40;99.90;;;;;;4993355;28;20038;-71
2022/04/27 04:12:50;;;;;;;16.08;10.25;;;13.50;99.90;;;;;;4974062;28;20460;-70
2022/04/27 04:15:37;;;;;;;16.77;10.32;;;13.50;99.90;;;;;;4990349;28;20097;-71
2022/04/27 04:18:21;;;;;;;15.23;8.82;;;13.60;99.90;;;;;;4975664;28;20073;-71
2022/04/27 04:21:02;;;;;;;15.57;9.02;;;13.60;99.90;;;;;;4989774;28;20058;-71
2022/04/27 04:23:46;;;;;;;15.52;8.63;;;14.40;99.90;;;;;;4989673;28;20042;-69
2022/04/27 04:28:59;;;;;;;13.60;8.02;;;14.80;99.90;;;;;;4987593;28;20034;-71
2022/04/27 04:31:25;;;;;;;11.93;7.55;;;14.70;99.90;;;;;;4989702;28;20039;-70
2022/04/27 04:34:14;;;;;;;13.02;6.68;;;14.90;99.90;;;;;;4989893;28;20433;-71
2022/04/27 04:36:41;;;;;;;11.18;7.00;;;15.20;99.90;;;;;;4990046;28;20035;-71
2022/04/27 04:39:07;;;;;;;11.40;6.50;;;15.10;99.90;;;;;;4975743;28;20089;-72
2022/04/27 04:41:36;;;;;;;12.73;8.18;;;15.10;99.90;;;;;;4989938;28;20066;-71
2022/04/27 04:44:03;;;;;;;13.68;6.93;;;15.90;99.90;;;;;;4989944;28;20061;-71
2022/04/27 04:46:41;;;;;;;9.48;6.10;;;16.80;99.90;;;;;;4989354;28;20221;-71
2022/04/27 04:49:19;;;;;;;9.68;5.97;;;17.80;99.90;;;;;;4989782;28;20066;-71
2022/04/27 04:51:58;;;;;;;13.85;5.88;;;18.80;99.90;;;;;;4989535;28;20374;-71
2022/04/27 04:54:26;;;;;;;9.82;5.38;;;19.50;99.90;;;;;;4975180;28;20507;-72
2022/04/27 04:57:03;;;;;;;8.57;5.93;;;20.20;99.90;;;;;;4989576;28;20392;-72
2022/04/27 04:59:56;;;;;;;8.43;5.05;;;20.70;99.90;;;;;;4977085;28;20096;-71
2022/04/27 05:02:38;;;;;;;10.02;5.63;;;20.40;99.90;;;;;;4989142;28;20054;-72
2022/04/27 05:05:27;;;;;;;8.65;5.43;;;19.70;99.90;;;;;;4975342;28;20066;-72
2022/04/27 05:08:15;;;;;;;12.57;6.25;;;19.20;99.90;;;;;;4974512;28;20043;-71
2022/04/27 05:11:00;;;;;;;10.80;5.57;;;18.90;99.90;;;;;;4989307;28;20023;-72
2022/04/27 05:13:46;;;;;;;12.32;7.90;;;18.60;99.90;;;;;;4975094;28;20039;-71
2022/04/27 05:16:32;;;;;;;14.48;8.52;;;18.20;99.90;;;;;;4974166;28;20037;-72
2022/04/27 05:19:30;;;;;;;17.38;9.13;;;18.30;99.90;;;;;;5030650;28;20136;-71
2022/04/27 05:22:15;;;;;;;15.20;9.52;;;18.50;99.90;;;;;;5030431;28;20391;-71
2022/04/27 05:25:10;;;;;;;13.77;8.25;;;18.50;99.90;;;;;;5028392;28;20140;-71
2022/04/27 05:27:49;;;;;;;;;;;18.30;99.90;;;;;;5030872;28;20497;-71
2022/04/27 05:33:40;;;;;;;13.82;7.18;;;18.30;99.90;;;;;;5030454;28;20049;-72
2022/04/27 05:36:26;;;;;;;9.73;6.82;;;18.20;99.90;;;;;;4990938;28;20076;-71
2022/04/27 05:39:07;;;;;;;11.02;6.97;;;18.00;99.90;;;;;;4990627;28;20052;-72
2022/04/27 05:41:59;;;;;;;11.40;7.27;;;18.00;99.90;;;;;;4983458;28;20539;-71
2022/04/27 05:44:45;;;;;;;9.02;5.13;;;17.90;99.90;;;;;;4983474;28;20073;-72
2022/04/27 05:47:30;;;;;;;9.40;5.15;;;18.00;99.90;;;;;;4973146;28;20114;-71
2022/04/27 05:50:17;;;;;;;10.43;6.57;;;17.70;99.90;;;;;;4974285;28;20034;-71
2022/04/27 05:52:58;;;;;;;10.50;6.97;;;17.70;99.90;;;;;;4974347;28;20050;-71
2022/04/27 05:55:43;;;;;;;13.85;7.45;;;17.40;99.90;;;;;;4948771;28;20032;-70
2022/04/27 05:58:30;;;;;;;12.77;7.30;;;17.20;99.90;;;;;;4932438;29;20066;-71
2022/04/27 06:01:15;;;;;;;13.18;7.88;;;17.50;99.90;;;;;;4932578;29;20030;-72
2022/04/27 06:03:53;;;;;;;11.35;7.03;;;17.30;99.90;;;;;;4948625;28;20131;-71
2022/04/27 06:06:21;;;;;;;11.90;7.15;;;17.60;99.90;;;;;;4948049;28;20044;-71
2022/04/27 06:08:47;;;;;;;11.43;7.10;;;17.60;99.90;;;;;;4932254;29;20040;-71
2022/04/27 06:11:19;;;;;;;13.52;7.65;;;17.60;99.90;;;;;;4948397;28;20533;-71
2022/04/27 06:14:04;;;;;;;11.45;7.38;;;17.70;99.90;;;;;;4974538;28;20041;-71
2022/04/27 06:16:41;;;;;;;18.33;7.55;;;17.60;99.90;;;;;;5007031;28;20034;-71
2022/04/27 06:19:13;;;;;;;8.82;6.50;;;17.70;99.90;;;;;;5007460;28;20121;-70
2022/04/27 06:21:39;;;;;;;12.15;6.22;;;17.90;99.90;;;;;;4991338;28;20117;-70
2022/04/27 06:24:06;;;;;;;10.93;7.95;;;17.90;99.90;;;;;;4990891;28;20026;-71
2022/04/27 06:26:36;;;;;;;14.00;7.85;;;17.90;99.90;;;;;;5006695;28;20276;-70
2022/04/27 06:29:03;;;;;;;11.60;7.32;;;17.90;99.90;;;;;;4990816;28;20037;-70
2022/04/27 06:31:31;;;;;;;14.30;6.68;;;17.70;99.90;;;;;;5007210;28;20034;-71
2022/04/27 06:33:59;;;;;;;11.15;6.95;;;17.60;99.90;;;;;;4990906;28;20026;-70
2022/04/27 06:36:25;;;;;;;10.15;6.70;;;17.60;99.90;;;;;;4990585;28;20026;-70
2022/04/27 06:38:52;;;;;;;12.93;6.95;;;17.60;99.90;;;;;;4990641;28;20030;-72
2022/04/27 06:41:27;;;;;;;13.02;6.80;;;17.60;99.90;;;;;;4992132;28;20029;-71
2022/04/27 06:44:12;;;;;;;11.82;7.53;;;17.60;99.90;;;;;;4991998;28;20037;-69
2022/04/27 06:46:57;;;;;;;12.18;7.15;;;17.60;99.90;;;;;;4992098;28;20101;-71
2022/04/27 06:49:41;;;;;;;12.55;7.03;;;17.70;99.90;;;;;;4991928;28;20045;-71
2022/04/27 06:52:26;;;;;;;14.25;7.72;;;17.70;99.90;;;;;;4991884;28;20053;-72
2022/04/27 06:55:18;;;;;;;11.60;6.90;;;17.50;99.90;;;;;;4993488;28;20037;-72
2022/04/27 06:58:06;;;;;;;10.98;7.60;;;17.60;99.90;;;;;;4993433;28;20165;-70
2022/04/27 07:00:32;;;;;;;14.52;7.93;;;17.60;99.90;;;;;;5006911;28;20073;-70
2022/04/27 07:02:58;;;;;;;15.57;7.38;;;17.60;99.90;;;;;;5007046;28;20120;-72
2022/04/27 07:05:26;;;;;;;18.48;7.93;;;17.70;99.90;;;;;;5006746;28;20469;-71
2022/04/27 07:07:52;;;;;;;12.23;7.88;;;17.60;99.90;;;;;;5007139;28;20496;-72
2022/04/27 07:10:19;;;;;;;18.27;7.85;;;17.50;99.90;;;;;;4991715;28;20081;-72
2022/04/27 07:12:48;;;;;;;14.68;7.30;;;17.50;99.90;;;;;;5001851;28;20038;-71
2022/04/27 07:15:17;;;;;;;12.13;8.02;;;17.60;99.90;;;;;;5010858;28;20152;-72
2022/04/27 07:17:43;;;;;;;13.57;8.45;;;18.10;99.90;;;;;;5011101;28;20461;-72
2022/04/27 07:20:10;;;;;;;14.75;9.27;;;18.50;99.90;;;;;;5010877;28;20920;-72
2022/04/27 07:22:36;;;;;;;15.10;9.50;;;18.50;99.90;;;;;;5010784;28;20105;-71
2022/04/27 07:25:02;;;;;;;23.73;8.93;;;19.00;99.90;;;;;;5010684;28;20045;-72
2022/04/27 07:27:31;;;;;;;13.20;8.40;;;19.00;99.90;;;;;;5014528;28;20076;-71
2022/04/27 07:29:58;;;;;;;12.18;8.38;;;19.20;99.90;;;;;;5014608;28;20066;-72
2022/04/27 07:32:24;;;;;;;13.32;7.78;;;19.50;99.90;;;;;;5014366;28;20030;-72
2022/04/27 07:34:51;;;;;;;12.20;7.25;;;19.90;99.90;;;;;;5015535;28;20058;-72
2022/04/27 07:37:18;;;;;;;11.18;6.43;;;19.70;99.90;;;;;;5014982;28;20120;-72
2022/04/27 07:39:43;;;;;;;10.02;5.70;;;19.90;99.90;;;;;;5030541;28;20038;-72
2022/04/27 07:42:09;;;;;;;10.20;7.13;;;19.70;99.90;;;;;;5015661;28;20383;-72
2022/04/27 07:44:35;;;;;;;11.55;6.20;;;19.70;99.90;;;;;;5015663;28;20080;-72
2022/04/27 07:47:01;;;;;;;8.93;5.25;;;19.80;99.90;;;;;;5015354;28;20022;-72
2022/04/27 07:49:27;;;;;;;6.70;3.50;;;19.60;99.90;;;;;;5015170;28;20369;-73
2022/04/27 07:51:54;;;;;;;2.97;1.90;;;19.80;98.80;;;;;;5015095;28;20034;-72
2022/04/27 07:54:20;;;;;;;4.00;2.28;;;20.00;95.00;;;;;;5015055;28;20026;-72
2022/04/27 07:56:46;;;;;;;11.60;4.80;;;20.30;97.10;;;;;;5014516;28;20388;-72
2022/04/27 07:59:11;;;;;;;8.45;4.82;;;20.20;95.10;;;;;;5014845;28;20465;-68
2022/04/27 08:01:37;;;;;;;12.98;6.13;;;20.00;97.90;;;;;;5015585;28;20032;-72
2022/04/27 08:04:03;;;;;;;14.63;6.45;;;19.70;99.50;;;;;;5014959;28;20072;-72
2022/04/27 08:06:29;;;;;;;11.55;6.00;;;19.50;99.90;;;;;;5015073;28;20037;-71
2022/04/27 08:08:55;;;;;;;9.23;5.55;;;19.20;99.90;;;;;;5015012;28;20583;-72
2022/04/27 08:11:22;;;;;;;10.77;6.28;;;19.00;99.90;;;;;;5014673;28;20030;-72
2022/04/27 08:13:48;;;;;;;9.63;6.07;;;19.10;99.90;;;;;;5014572;28;20026;-72
2022/04/27 08:16:14;;;;;;;16.50;5.65;;;19.10;99.90;;;;;;5014770;28;20368;-72
2022/04/27 08:18:40;;;;;;;15.82;6.40;;;19.20;99.90;;;;;;5014484;28;20034;-73
2022/04/27 08:21:15;;;;;;;16.25;6.32;;;19.20;99.90;;;;;;5014534;28;20026;-72
2022/04/27 08:23:43;;;;;;;11.07;7.13;;;19.00;99.90;;;;;;5014353;28;20871;-72
2022/04/27 08:26:10;;;;;;;16.10;6.75;;;19.00;99.90;;;;;;5014753;28;20464;-73
2022/04/27 08:28:37;;;;;;;14.10;5.65;;;18.90;99.90;;;;;;5014647;28;20022;-72
2022/04/27 08:31:04;;;;;;;11.25;5.22;;;18.90;99.90;;;;;;5014260;28;20030;-72
2022/04/27 08:33:30;;;;;;;6.18;4.30;;;18.90;99.90;;;;;;5014534;28;20091;-72
2022/04/27 08:36:00;;;;;;;8.82;4.18;;;18.90;99.90;;;;;;5014207;28;20539;-67
2022/04/27 08:38:27;;;;;;;6.65;4.22;;;18.60;99.90;;;;;;5012973;28;20030;-67
2022/04/27 08:40:53;;;;;;;7.97;4.45;;;18.70;99.90;;;;;;5014483;28;20064;-72
2022/04/27 08:43:21;;;;;;;5.65;3.67;;;18.70;99.90;;;;;;5013995;28;20044;-71
2022/04/27 08:45:47;;;;;;;8.88;4.07;;;18.80;99.90;;;;;;5014034;28;20044;-67
2022/04/27 08:48:17;;;;;;;6.70;4.13;;;18.80;99.90;;;;;;5014439;28;20490;-70
2022/04/27 08:50:45;;;;;;;7.10;4.25;;;19.10;99.90;;;;;;5012059;28;20018;-68
2022/04/27 08:53:11;;;;;;;6.97;4.18;;;19.40;99.90;;;;;;5010178;28;20034;-72
2022/04/27 08:55:40;;;;;;;12.88;5.28;;;19.60;99.90;;;;;;5012433;28;20499;-68
2022/04/27 08:58:15;;;;;;;8.55;4.40;;;19.70;99.90;;;;;;5012841;28;20018;-68
2022/04/27 09:00:44;;;;;;;6.88;3.53;;;19.80;99.90;;;;;;5012297;28;20034;-72
2022/04/27 09:03:28;;;;;;;5.80;3.17;;;19.80;99.90;;;;;;5013688;28;20080;-70
2022/04/27 09:06:00;;;;;;;5.05;2.80;;;19.60;99.90;;;;;;5013980;28;20037;-72
2022/04/27 09:08:47;;;;;;;3.67;2.38;;;19.90;98.30;;;;;;5013670;28;20033;-70
2022/04/27 09:11:25;;;;;;;3.72;2.78;;;19.90;95.50;;;;;;5013495;28;20045;-68
2022/04/27 09:13:53;;;;;;;2.97;2.33;;;20.40;99.20;;;;;;5013654;28;20061;-72
2022/04/27 09:16:23;;;;;;;3.22;2.10;;;20.40;94.90;;;;;;5013029;28;20064;-72
2022/04/27 09:22:04;;;;;;;11.50;6.70;;;20.70;99.90;;;;;;5013288;28;20064;-71
2022/04/27 09:25:09;;;;;;;10.15;6.50;;;20.50;99.90;;;;;;4971615;28;20042;-70
2022/04/27 09:27:35;;;;;;;8.90;5.53;;;20.50;99.90;;;;;;4933848;29;20549;-71
2022/04/27 09:30:03;;;;;;;11.15;5.93;;;20.30;99.90;;;;;;4933472;29;20047;-71
2022/04/27 09:32:30;;;;;;;12.35;6.22;;;20.30;99.90;;;;;;4930401;29;20148;-71
2022/04/27 09:34:57;;;;;;;9.13;5.47;;;20.60;99.90;;;;;;4931776;29;20383;-70
2022/04/27 09:37:24;;;;;;;11.98;5.22;;;20.30;99.90;;;;;;4932464;29;20466;-72
2022/04/27 09:40:07;;;;;;;9.65;5.30;;;19.90;99.90;;;;;;4932926;29;20040;-71
2022/04/27 09:42:41;;;;;;;6.80;3.60;;;19.80;99.90;;;;;;4931987;29;20130;-72
2022/04/27 09:45:18;;;;;;;7.43;4.60;;;20.10;99.90;;;;;;4917226;29;20048;-72
2022/04/27 09:48:05;;;;;;;7.95;4.82;;;20.30;99.90;;;;;;4913565;29;20554;-65
2022/04/27 09:50:55;;;;;;;9.73;4.43;;;20.40;99.90;;;;;;4911877;29;20063;-72
2022/04/27 09:53:21;;;;;;;6.13;3.50;;;20.20;99.90;;;;;;4913529;29;20095;-70
2022/04/27 09:55:49;;;;;;;11.10;4.00;;;19.90;99.90;;;;;;4910243;29;20053;-71
2022/04/27 09:58:16;;;;;;;5.25;3.28;;;20.10;99.90;;;;;;4912442;29;20043;-72
2022/04/27 10:00:45;;;;;;;4.70;3.00;;;20.00;99.90;;;;;;4939528;28;20049;-70
2022/04/27 10:03:19;;;;;;;6.35;3.42;;;20.30;99.90;;;;;;4973972;28;20437;-72
2022/04/27 10:05:46;;;;;;;7.75;3.63;;;20.40;99.90;;;;;;4973660;28;20023;-72
2022/04/27 10:08:12;;;;;;;4.70;3.30;;;20.50;99.90;;;;;;4973808;28;20030;-71
2022/04/27 10:10:39;;;;;;;4.57;3.60;;;20.60;99.90;;;;;;4973591;28;20038;-72
2022/04/27 10:13:10;;;;;;;4.70;3.50;;;20.60;99.90;;;;;;4973412;28;20056;-72
2022/04/27 10:15:41;;;;;;;3.58;3.13;;;20.90;97.80;;;;;;4973128;28;20037;-71
2022/04/27 10:18:08;;;;;;;4.03;2.85;;;20.80;96.00;;;;;;4973351;28;20093;-72
2022/04/27 10:20:35;;;;;;;10.10;3.55;;;20.70;99.10;;;;;;4973360;28;20045;-73
2022/04/27 10:23:22;;;;;;;5.18;3.65;;;20.60;96.30;;;;;;4973443;28;20117;-71
2022/04/27 10:26:14;;;;;;;7.40;3.85;;;20.80;99.10;;;;;;4973362;28;20110;-72
2022/04/27 10:28:59;;;;;;;5.72;3.63;;;20.60;96.80;;;;;;4973015;28;20031;-72
2022/04/27 10:31:40;;;;;;;9.63;4.38;;;21.10;99.90;;;;;;4972969;28;20106;-72
2022/04/27 10:34:22;;;;;;;5.97;3.42;;;21.50;96.80;;;;;;4973182;28;20030;-71
2022/04/27 10:36:58;;;;;;;5.07;3.27;;;21.50;94.40;;;;;;4973280;28;20030;-72
2022/04/27 10:39:28;;;;;;;4.88;3.25;;;21.00;94.40;;;;;;4973227;28;20037;-70
2022/04/27 10:42:03;;;;;;;3.88;2.88;;;20.50;96.40;;;;;;4973236;28;20019;-71
2022/04/27 10:44:50;;;;;;;5.63;3.20;;;20.90;96.50;;;;;;4972724;28;20088;-72
2022/04/27 10:47:18;;;;;;;4.07;2.58;;;20.90;96.80;;;;;;4973362;28;20042;-71
2022/04/27 10:49:48;;;;;;;3.85;2.80;;;20.90;98.10;;;;;;4972950;28;20027;-72
2022/04/27 10:52:16;;;;;;;3.72;2.78;;;20.70;98.60;;;;;;4973154;28;20421;-72
2022/04/27 10:54:42;;;;;;;5.28;2.70;;;20.80;95.30;;;;;;4972938;28;20564;-71
2022/04/27 10:57:18;;;;;;;6.57;2.80;;;20.90;95.80;;;;;;4973050;28;20035;-72
2022/04/27 11:00:03;;;;;;;4.22;2.00;;;21.10;98.90;;;;;;4973024;28;20023;-72
2022/04/27 11:02:40;;;;;;;5.30;2.35;;;21.10;93.30;;;;;;4974781;28;20551;-72
2022/04/27 11:05:20;;;;;;;5.90;2.80;;;21.30;91.90;;;;;;4990223;28;20455;-68
2022/04/27 11:08:21;;;;;;;6.82;2.22;;;21.30;92.80;;;;;;4991352;28;20034;-70
2022/04/27 11:10:48;;;;;;;3.10;2.00;;;21.40;90.70;;;;;;4984319;28;20045;-72
2022/04/27 11:13:15;;;;;;;2.60;2.13;;;21.30;85.60;;;;;;4974928;28;20039;-70
2022/04/27 11:15:41;;;;;;;4.15;2.08;;;21.20;89.40;;;;;;4984501;28;20041;-71
2022/04/27 11:18:07;;;;;;;10.13;2.42;;;21.20;91.50;;;;;;4985178;28;20031;-69
2022/04/27 11:20:37;;;;;;;10.57;2.50;;;21.10;89.00;;;;;;4977457;28;20047;-71
2022/04/27 11:23:07;;;;;;;4.72;2.92;;;21.20;87.60;;;;;;4973286;28;20043;-70
2022/04/27 11:25:36;;;;;;;2.72;2.20;;;21.30;90.80;;;;;;4979227;28;20134;-70
2022/04/27 11:28:03;;;;;;;3.58;2.20;;;21.30;93.10;;;;;;4970043;28;20034;-70
2022/04/27 11:30:30;;;;;;;3.53;2.42;;;21.30;91.60;;;;;;4970213;28;20051;-70
2022/04/27 11:32:57;;;;;;;2.42;2.10;;;21.40;88.30;;;;;;4970186;28;20086;-70
2022/04/27 11:35:24;;;;;;;6.03;2.20;;;21.50;92.20;;;;;;4973149;28;20054;-71
2022/04/27 11:37:55;;;;;;;4.28;2.50;;;21.60;83.60;;;;;;4976827;28;20035;-70
2022/04/27 11:40:25;;;;;;;5.03;2.45;;;21.60;85.20;;;;;;4970912;28;20071;-71
2022/04/27 11:42:52;;;;;;;3.85;2.42;;;21.60;83.40;;;;;;4978981;28;20129;-71
2022/04/27 11:45:20;;;;;;;3.63;2.03;;;21.70;86.20;;;;;;4988348;28;20440;-70
2022/04/27 11:48:01;;;;;;;5.00;2.72;;;21.80;89.10;;;;;;4986544;28;20050;-72
2022/04/27 11:50:31;;;;;;;6.82;3.00;;;21.90;85.10;;;;;;4991756;28;20034;-75
2022/04/27 11:52:59;;;;;;;4.65;2.60;;;21.80;86.30;;;;;;4991276;28;20118;-74
2022/04/27 11:55:26;;;;;;;4.20;3.00;;;21.80;88.10;;;;;;4991476;28;20027;-71
2022/04/27 11:57:51;;;;;;;6.75;3.35;;;21.70;86.90;;;;;;4991510;28;20080;-73
2022/04/27 12:00:28;;;;;;;6.55;2.85;;;21.70;88.10;;;;;;4992185;28;20247;-73
2022/04/27 12:03:03;;;;;;;4.82;2.97;;;21.80;87.70;;;;;;4991577;28;20106;-73
2022/04/27 12:05:34;;;;;;;3.95;2.70;;;21.30;83.80;;;;;;4991258;28;20050;-72
2022/04/27 12:08:09;;;;;;;4.22;2.95;;;21.30;84.10;;;;;;4991776;28;20033;-70
2022/04/27 12:10:45;;;;;;;4.57;3.10;;;21.50;84.50;;;;;;4991613;28;20058;-69
2022/04/27 12:13:14;;;;;;;6.93;3.65;;;21.80;83.00;;;;;;4993840;28;20097;-72
2022/04/27 12:15:45;;;;;;;6.72;3.47;;;21.70;84.50;;;;;;4994449;28;20018;-74
2022/04/27 12:18:18;;;;;;;4.78;3.47;;;21.60;88.00;;;;;;4994178;28;20034;-74
2022/04/27 12:20:46;;;;;;;7.65;3.63;;;21.70;85.60;;;;;;4993332;28;20030;-71
2022/04/27 12:23:20;;;;;;;9.43;4.07;;;21.70;91.80;;;;;;4994640;28;20023;-72
2022/04/27 12:25:55;;;;;;;6.80;2.92;;;21.80;89.00;;;;;;4995057;28;20045;-72
2022/04/27 12:28:26;;;;;;;4.38;3.00;;;21.60;86.10;;;;;;4994615;28;20031;-73
2022/04/27 12:31:05;;;;;;;4.65;3.08;;;21.50;85.10;;;;;;4994148;28;20038;-71
2022/04/27 12:33:37;;;;;;;3.90;3.15;;;21.60;90.00;;;;;;4995080;28;20419;-70
2022/04/27 12:39:03;;;;;;;4.68;3.28;;;22.20;85.50;;;;;;4994487;28;20515;-71
2022/04/27 12:41:34;;;;;;;4.50;2.85;;;22.20;83.30;;;;;;4994128;28;20034;-71
2022/04/27 12:44:09;;;;;;;4.72;3.20;;;22.10;78.50;;;;;;4993955;28;20560;-72
2022/04/27 12:46:37;;;;;;;3.33;2.60;;;22.10;78.70;;;;;;4994067;28;20409;-72
2022/04/27 12:49:05;;;;;;;9.63;2.97;;;22.10;80.70;;;;;;4994417;28;20495;-70
2022/04/27 12:51:35;;;;;;;3.30;2.88;;;21.80;79.80;;;;;;4993373;28;20066;-72
2022/04/27 12:54:09;;;;;;;3.63;2.50;;;21.80;81.90;;;;;;4994125;28;20088;-74
2022/04/27 12:56:35;;;;;;;5.75;3.90;;;21.80;79.10;;;;;;4992767;28;20034;-73
2022/04/27 12:59:11;;;;;;;10.25;4.13;;;21.80;80.50;;;;;;4974694;28;20493;-71
2022/04/27 13:01:39;;;;;;;3.97;2.55;;;22.10;80.70;;;;;;4972747;28;20085;-70
2022/04/27 13:04:06;;;;;;;4.00;2.67;;;22.30;82.10;;;;;;4974492;28;20113;-73
2022/04/27 13:06:32;;;;;;;7.47;2.92;;;22.10;77.80;;;;;;4974249;28;20039;-72
2022/04/27 13:11:57;;;;;;;4.50;2.75;;;22.30;77.90;;;;;;4973430;28;20039;-72
2022/04/27 13:14:27;;;;;;;5.60;2.97;;;22.30;77.70;;;;;;4974921;28;20031;-74
2022/04/27 13:16:56;;;;;;;4.25;2.97;;;22.10;80.90;;;;;;5011366;28;20104;-73
2022/04/27 13:19:23;;;;;;;5.38;2.92;;;21.90;80.90;;;;;;5031233;28;20479;-74